Time;durP1;ratioP1;P1;durP2;ratioP2;P2;SDS_P1;SDS_P2;PMS_P1;PMS_P2;Temp;Humidity;BMP_temperature;BMP_pressure;BME280_temperature;BME280_humidity;BME280_pressure;Samples;Min_cycle;Max_cycle;Signal;HPM_P1;HPM_P2
2023/09/02 00:00:41;;;;;;;23.60;9.38;;;;;;;18.69;69.34;100276.88;5017177;28;20046;-49
2023/09/02 00:03:08;;;;;;;23.50;9.90;;;;;;;18.69;70.01;100281.25;5019934;28;20060;-47
2023/09/02 00:05:34;;;;;;;25.02;10.20;;;;;;;18.68;69.42;100280.38;5016569;28;20053;-50
2023/09/02 00:08:01;;;;;;;25.23;9.88;;;;;;;18.69;69.51;100282.09;5016079;28;20457;-50
2023/09/02 00:10:28;;;;;;;26.08;9.77;;;;;;;18.68;69.28;100285.63;5017286;28;20054;-49
2023/09/02 00:12:55;;;;;;;26.25;10.80;;;;;;;18.68;69.48;100296.13;5018697;28;20175;-47
2023/09/02 00:15:21;;;;;;;28.40;10.45;;;;;;;18.68;69.88;100296.13;5020877;28;20503;-49
2023/09/02 00:17:49;;;;;;;37.13;10.23;;;;;;;18.68;69.82;100293.50;5014972;28;20140;-47
2023/09/02 00:20:17;;;;;;;28.00;10.77;;;;;;;18.68;69.76;100296.13;5019829;28;20503;-50
2023/09/02 00:22:45;;;;;;;29.80;10.65;;;;;;;18.68;69.89;100295.28;5011073;28;20062;-48
2023/09/02 00:25:12;;;;;;;33.22;11.02;;;;;;;18.68;70.06;100293.50;5015033;28;20056;-48
2023/09/02 00:27:41;;;;;;;31.25;11.82;;;;;;;18.67;70.20;100289.16;5012481;28;20085;-51
2023/09/02 00:30:13;;;;;;;28.88;11.52;;;;;;;18.69;69.76;100292.59;5012337;28;20128;-49
2023/09/02 00:32:41;;;;;;;24.55;10.50;;;;;;;18.70;70.09;100294.31;5018308;28;20052;-50
2023/09/02 00:35:15;;;;;;;26.98;10.35;;;;;;;18.71;70.08;100301.25;5009523;28;20095;-49
2023/09/02 00:37:44;;;;;;;30.73;10.48;;;;;;;18.72;70.55;100287.25;5008585;28;20049;-49
2023/09/02 00:40:16;;;;;;;28.35;11.25;;;;;;;18.73;70.38;100291.59;5010312;28;20057;-47
2023/09/02 00:42:46;;;;;;;30.88;11.20;;;;;;;18.73;70.17;100299.47;5008385;28;20053;-45
2023/09/02 00:45:16;;;;;;;30.17;11.00;;;;;;;18.74;70.56;100293.31;5011190;28;20136;-49
2023/09/02 00:47:45;;;;;;;30.65;10.95;;;;;;;18.75;69.96;100295.00;5023915;28;20050;-48
2023/09/02 00:50:14;;;;;;;31.15;10.93;;;;;;;18.74;70.64;100290.69;5017521;28;20050;-47
2023/09/02 00:52:42;;;;;;;29.45;11.68;;;;;;;18.73;70.52;100288.97;5017756;28;20498;-50
2023/09/02 00:55:14;;;;;;;32.15;11.00;;;;;;;18.73;70.68;100294.22;5018210;28;20129;-47
2023/09/02 00:57:45;;;;;;;27.70;9.65;;;;;;;18.72;70.51;100292.50;5022794;28;20053;-49
2023/09/02 01:00:14;;;;;;;28.27;10.38;;;;;;;18.71;70.53;100297.81;5020025;28;20050;-47
2023/09/02 01:02:45;;;;;;;27.20;10.25;;;;;;;18.71;70.60;100300.44;5023271;28;20053;-49
2023/09/02 01:05:15;;;;;;;34.33;12.07;;;;;;;18.70;70.70;100294.31;5024307;28;20475;-47
2023/09/02 01:07:43;;;;;;;29.63;10.70;;;;;;;18.71;70.54;100292.56;5016682;28;20049;-48
2023/09/02 01:10:10;;;;;;;29.00;10.65;;;;;;;18.70;70.88;100293.44;5014317;28;20053;-49
2023/09/02 01:12:37;;;;;;;30.30;10.95;;;;;;;18.68;71.15;100283.00;5018290;28;20048;-52
2023/09/02 01:15:04;;;;;;;27.65;11.55;;;;;;;18.68;71.53;100284.78;5027397;28;20431;-49
2023/09/02 01:17:31;;;;;;;28.73;10.85;;;;;;;18.67;71.44;100283.06;5020675;28;20167;-46
2023/09/02 01:20:00;;;;;;;27.80;10.60;;;;;;;18.67;70.92;100290.94;5021695;28;20510;-45
2023/09/02 01:22:43;;;;;;;33.55;10.65;;;;;;;18.65;71.03;100288.38;5020621;28;20077;-47
2023/09/02 01:25:21;;;;;;;27.50;9.85;;;;;;;18.66;71.42;100292.69;5040729;28;20593;-47
2023/09/02 01:27:54;;;;;;;29.70;11.40;;;;;;;18.67;71.10;100288.31;5038462;28;20053;-49
2023/09/02 01:30:26;;;;;;;30.92;10.50;;;;;;;18.66;71.41;100287.44;5033133;28;20056;-46
2023/09/02 01:32:55;;;;;;;29.77;10.77;;;;;;;18.65;71.18;100280.50;5035990;28;20053;-47
2023/09/02 01:35:27;;;;;;;32.90;11.73;;;;;;;18.64;71.74;100289.25;5040907;28;20045;-47
2023/09/02 01:37:56;;;;;;;29.90;11.30;;;;;;;18.61;71.04;100284.13;5040051;28;20045;-46
2023/09/02 01:40:25;;;;;;;33.97;11.40;;;;;;;18.59;71.94;100291.19;5031947;28;20045;-47
2023/09/02 01:42:56;;;;;;;34.90;11.63;;;;;;;18.57;71.96;100290.34;5034617;28;20075;-48
2023/09/02 01:45:25;;;;;;;33.47;11.93;;;;;;;18.55;72.17;100286.94;5043202;28;20048;-51
2023/09/02 01:47:53;;;;;;;29.13;10.98;;;;;;;18.54;72.44;100293.09;5037762;28;20414;-50
2023/09/02 01:50:24;;;;;;;29.83;11.85;;;;;;;18.53;72.08;100296.59;5036207;28;20045;-48
2023/09/02 01:52:53;;;;;;;33.05;11.82;;;;;;;18.53;71.92;100291.38;5037875;28;20053;-49
2023/09/02 01:55:20;;;;;;;30.48;12.13;;;;;;;18.54;71.94;100300.97;5032956;28;20053;-47
2023/09/02 01:57:46;;;;;;;31.10;11.90;;;;;;;18.49;72.27;100304.59;5033760;28;20522;-46
2023/09/02 02:00:13;;;;;;;35.38;12.50;;;;;;;18.50;72.02;100311.56;5038446;28;20517;-46
2023/09/02 02:02:42;;;;;;;31.52;12.13;;;;;;;18.50;72.09;100318.56;5040786;28;20072;-49
2023/09/02 02:05:14;;;;;;;33.28;11.73;;;;;;;18.50;72.31;100314.19;5021578;28;20128;-49
2023/09/02 02:07:45;;;;;;;29.77;10.70;;;;;;;18.50;71.86;100314.19;5031610;28;20521;-49
2023/09/02 02:10:16;;;;;;;36.50;12.75;;;;;;;18.50;72.26;100310.69;5040751;28;20685;-47
2023/09/02 02:12:43;;;;;;;34.92;12.75;;;;;;;18.47;71.93;100314.25;5039311;28;20412;-45
2023/09/02 02:15:11;;;;;;;32.40;11.50;;;;;;;18.47;72.37;100319.50;5039918;28;20045;-52
2023/09/02 02:17:39;;;;;;;37.05;12.00;;;;;;;18.46;72.52;100323.06;5041508;28;20103;-49
2023/09/02 02:20:07;;;;;;;36.25;12.40;;;;;;;18.47;72.04;100322.13;5034742;28;20704;-48
2023/09/02 02:22:34;;;;;;;34.35;11.38;;;;;;;18.47;72.43;100330.00;5032958;28;20085;-50
2023/09/02 02:25:00;;;;;;;36.00;11.75;;;;;;;18.46;71.90;100328.28;5039279;28;20045;-48
2023/09/02 02:27:27;;;;;;;34.38;11.65;;;;;;;18.47;72.43;100334.38;5038590;28;20053;-46
2023/09/02 02:29:55;;;;;;;40.13;12.05;;;;;;;18.45;72.34;100330.97;5031898;28;20053;-47
2023/09/02 02:32:22;;;;;;;40.58;12.23;;;;;;;18.45;72.51;100334.47;5038682;28;20162;-48
2023/09/02 02:34:49;;;;;;;34.30;11.25;;;;;;;18.44;72.18;100330.09;5034074;28;20057;-47
2023/09/02 02:37:15;;;;;;;36.45;12.07;;;;;;;18.41;72.40;100335.44;5033424;28;20077;-48
2023/09/02 02:39:42;;;;;;;35.60;12.35;;;;;;;18.41;72.67;100332.81;5036872;28;20059;-50
2023/09/02 02:42:09;;;;;;;37.42;12.80;;;;;;;18.41;72.68;100340.66;5035062;28;20040;-47
2023/09/02 02:44:35;;;;;;;38.50;12.77;;;;;;;18.42;72.68;100336.28;5029758;28;20059;-47
2023/09/02 02:47:02;;;;;;;35.15;11.98;;;;;;;18.40;72.61;100338.97;5036735;28;20045;-49
2023/09/02 02:49:29;;;;;;;36.33;12.82;;;;;;;18.38;72.73;100338.16;5034557;28;20060;-50
2023/09/02 02:51:56;;;;;;;35.65;12.35;;;;;;;18.37;72.98;100339.06;5032989;28;20419;-47
2023/09/02 02:54:23;;;;;;;41.33;13.02;;;;;;;18.36;72.35;100342.59;5026042;28;20782;-49
2023/09/02 02:56:50;;;;;;;38.10;12.73;;;;;;;18.36;72.76;100347.81;5033090;28;20056;-49
2023/09/02 02:59:17;;;;;;;40.83;12.98;;;;;;;18.35;72.48;100347.00;5038788;28;20053;-49
2023/09/02 03:01:44;;;;;;;41.03;13.95;;;;;;;18.35;72.62;100356.59;5040733;28;20045;-47
2023/09/02 03:04:12;;;;;;;38.50;12.35;;;;;;;18.34;72.34;100355.75;5043666;28;20048;-49
2023/09/02 03:06:39;;;;;;;40.63;14.13;;;;;;;18.32;72.35;100357.56;5032812;28;20053;-47
2023/09/02 03:09:06;;;;;;;44.10;12.85;;;;;;;18.29;73.37;100367.28;5041782;28;20045;-46
2023/09/02 03:11:33;;;;;;;44.60;14.80;;;;;;;18.29;72.80;100372.50;5037837;28;20546;-48
2023/09/02 03:14:00;;;;;;;48.25;14.63;;;;;;;18.28;73.08;100376.91;5040509;28;20087;-49
2023/09/02 03:16:26;;;;;;;48.13;15.45;;;;;;;18.26;72.97;100378.72;5037283;28;20076;-51
2023/09/02 03:18:53;;;;;;;47.85;14.68;;;;;;;18.22;73.19;100383.19;5034472;28;20040;-53
2023/09/02 03:21:20;;;;;;;47.88;16.27;;;;;;;18.20;72.67;100390.25;5034530;28;20426;-47
2023/09/02 03:23:46;;;;;;;43.67;14.45;;;;;;;18.18;72.73;100386.81;5037799;28;20069;-51
2023/09/02 03:26:15;;;;;;;40.63;14.52;;;;;;;18.20;73.18;100398.09;5030985;28;20045;-48
2023/09/02 03:28:42;;;;;;;44.65;13.77;;;;;;;18.17;73.04;100390.31;5034801;28;20099;-47
2023/09/02 03:31:09;;;;;;;48.08;15.10;;;;;;;18.17;73.17;100406.03;5037287;28;20048;-52
2023/09/02 03:33:41;;;;;;;41.47;14.15;;;;;;;18.18;73.10;100407.78;5033801;28;20068;-50
2023/09/02 03:36:14;;;;;;;45.95;14.45;;;;;;;18.18;73.27;100413.03;5034638;28;20048;-49
2023/09/02 03:38:41;;;;;;;45.92;14.05;;;;;;;18.19;73.44;100414.75;5042107;28;20110;-46
2023/09/02 03:41:10;;;;;;;46.00;16.48;;;;;;;18.20;73.05;100411.22;5032255;28;20052;-48
2023/09/02 03:43:37;;;;;;;45.92;14.90;;;;;;;18.20;72.58;100410.34;5050287;28;21427;-50
2023/09/02 03:46:05;;;;;;;42.97;14.48;;;;;;;18.20;73.64;100415.56;5023404;28;20517;-48
2023/09/02 03:48:32;;;;;;;37.08;13.60;;;;;;;18.17;72.99;100413.91;5019986;28;20046;-47
2023/09/02 03:53:39;;;;;;;40.50;15.40;;;;;;;18.11;73.22;100408.88;5040305;27;20394;-51
2023/09/02 03:56:06;;;;;;;36.78;14.65;;;;;;;18.11;72.99;100412.31;5020107;28;20049;-51
2023/09/02 03:58:34;;;;;;;36.25;14.55;;;;;;;18.12;73.41;100413.19;5017823;28;20050;-48
2023/09/02 04:01:01;;;;;;;38.53;16.33;;;;;;;18.12;72.82;100418.44;5018672;28;20723;-48
2023/09/02 04:03:29;;;;;;;33.13;14.48;;;;;;;18.11;72.97;100416.72;5016927;28;20052;-48
2023/09/02 04:05:56;;;;;;;35.42;14.30;;;;;;;18.09;73.59;100416.78;5019629;28;20049;-47
2023/09/02 04:08:25;;;;;;;31.58;13.95;;;;;;;18.09;73.52;100424.63;5022959;28;20042;-50
2023/09/02 04:10:54;;;;;;;31.35;13.20;;;;;;;18.05;73.05;100424.72;5018232;28;20145;-49
2023/09/02 04:13:24;;;;;;;33.95;14.13;;;;;;;18.05;72.98;100422.09;5017769;28;20042;-48
2023/09/02 04:15:57;;;;;;;29.70;13.50;;;;;;;18.05;73.21;100419.47;5021507;28;20072;-45
2023/09/02 04:18:25;;;;;;;25.88;12.60;;;;;;;18.04;73.26;100409.91;5015581;28;20076;-48
2023/09/02 04:20:52;;;;;;;31.10;12.43;;;;;;;18.02;73.05;100422.19;5015934;28;20461;-47
2023/09/02 04:23:21;;;;;;;27.08;12.88;;;;;;;17.99;73.60;100416.13;5013866;28;20081;-51
2023/09/02 04:25:51;;;;;;;27.98;10.73;;;;;;;18.00;73.07;100414.34;4998435;28;20590;-51
2023/09/02 04:28:18;;;;;;;;;;;;;;;17.83;73.38;100409.56;5002304;28;20046;-48
2023/09/02 04:30:45;;;;;;;27.48;12.85;;;;;;;17.97;73.21;100420.53;5001938;28;19921;-48
2023/09/02 04:33:13;;;;;;;29.35;11.48;;;;;;;17.99;73.04;100429.25;4996352;28;20046;-47
2023/09/02 04:35:42;;;;;;;23.88;11.25;;;;;;;18.03;73.38;100435.25;5004213;28;20133;-47
2023/09/02 04:38:09;;;;;;;22.42;10.55;;;;;;;18.04;73.29;100430.88;5003522;28;20069;-47
2023/09/02 04:40:37;;;;;;;22.88;11.02;;;;;;;18.05;72.87;100440.44;5002870;28;20120;-48
2023/09/02 04:43:05;;;;;;;22.63;11.13;;;;;;;18.01;72.88;100442.31;5000810;28;20046;-51
2023/09/02 04:45:33;;;;;;;22.35;10.43;;;;;;;18.03;73.27;100450.13;5002552;28;20069;-50
2023/09/02 04:48:00;;;;;;;23.80;11.20;;;;;;;18.02;72.67;100448.38;5000481;28;20058;-49
2023/09/02 04:50:27;;;;;;;24.33;10.98;;;;;;;17.98;73.32;100453.72;5000612;28;20066;-52
2023/09/02 04:52:55;;;;;;;23.08;11.38;;;;;;;17.97;73.21;100457.22;5001011;28;20419;-49
2023/09/02 04:55:24;;;;;;;24.20;10.43;;;;;;;17.97;72.70;100453.78;4996472;28;20425;-51
2023/09/02 04:57:52;;;;;;;25.88;12.88;;;;;;;17.97;72.92;100445.91;4999887;28;20046;-48
2023/09/02 05:00:22;;;;;;;22.40;10.73;;;;;;;17.93;73.11;100452.97;4999790;28;20057;-51
2023/09/02 05:02:49;;;;;;;25.35;11.90;;;;;;;17.92;72.42;100448.66;4996549;28;20042;-49
2023/09/02 05:05:17;;;;;;;24.30;9.68;;;;;;;17.92;73.09;100459.13;4989686;28;20244;-49
2023/09/02 05:07:44;;;;;;;23.85;9.98;;;;;;;17.91;73.08;100456.53;4987012;28;20423;-50
2023/09/02 05:10:12;;;;;;;24.65;11.25;;;;;;;17.90;72.54;100455.69;4987579;28;20050;-50
2023/09/02 05:12:39;;;;;;;22.33;9.82;;;;;;;17.89;72.83;100453.97;4978524;28;20453;-47
2023/09/02 05:15:07;;;;;;;24.40;11.05;;;;;;;17.89;72.91;100451.34;4987683;28;20058;-47
2023/09/02 05:17:34;;;;;;;23.77;10.45;;;;;;;17.86;72.99;100443.56;4981053;28;20042;-50
2023/09/02 05:20:04;;;;;;;21.13;10.20;;;;;;;17.87;72.61;100440.06;4982086;28;20499;-48
2023/09/02 05:22:30;;;;;;;22.90;9.70;;;;;;;17.82;72.94;100444.53;4984152;28;20061;-48
2023/09/02 05:24:57;;;;;;;22.17;10.32;;;;;;;17.81;72.62;100445.44;5002945;28;20050;-46
2023/09/02 05:27:24;;;;;;;19.45;9.52;;;;;;;17.80;72.96;100443.75;4983195;28;20053;-46
2023/09/02 05:29:50;;;;;;;20.85;9.52;;;;;;;17.77;72.86;100443.81;4984057;28;20496;-49
2023/09/02 05:32:17;;;;;;;19.95;9.35;;;;;;;17.78;73.26;100445.53;4986075;28;20507;-46
2023/09/02 05:34:44;;;;;;;18.15;8.93;;;;;;;17.77;72.57;100449.94;4986284;28;20061;-47
2023/09/02 05:37:11;;;;;;;19.27;9.95;;;;;;;17.76;72.84;100445.56;4984168;28;20161;-51
2023/09/02 05:39:38;;;;;;;18.77;8.52;;;;;;;17.76;72.56;100453.44;4983745;28;20050;-49
2023/09/02 05:42:05;;;;;;;16.35;8.88;;;;;;;17.75;72.59;100459.56;4981467;28;20047;-47
2023/09/02 05:44:34;;;;;;;18.55;10.10;;;;;;;17.74;72.66;100455.25;4988078;28;20050;-50
2023/09/02 05:47:02;;;;;;;18.25;8.65;;;;;;;17.72;73.23;100471.00;4984074;28;20042;-48
2023/09/02 05:49:28;;;;;;;17.80;8.57;;;;;;;17.71;73.25;100487.63;4984335;28;20058;-49
2023/09/02 05:51:55;;;;;;;20.13;9.10;;;;;;;17.72;72.85;100494.56;4997594;28;20049;-47
2023/09/02 05:54:22;;;;;;;17.27;8.27;;;;;;;17.71;73.45;100499.84;5005765;28;20182;-48
2023/09/02 05:56:49;;;;;;;24.25;9.13;;;;;;;17.71;73.00;100503.34;5003714;28;20045;-51
2023/09/02 05:59:15;;;;;;;21.08;9.00;;;;;;;17.69;73.51;100505.13;5001259;28;20131;-49
2023/09/02 06:01:43;;;;;;;20.95;8.77;;;;;;;17.67;72.84;100501.66;5007111;28;20050;-49
2023/09/02 06:04:10;;;;;;;21.25;8.88;;;;;;;17.67;73.44;100500.81;5005833;28;20049;-49
2023/09/02 06:06:37;;;;;;;20.33;9.32;;;;;;;17.68;73.04;100513.00;5000363;28;20046;-48
2023/09/02 06:09:04;;;;;;;21.17;9.00;;;;;;;17.68;72.69;100523.50;5001873;28;20104;-46
2023/09/02 06:11:31;;;;;;;21.88;9.65;;;;;;;17.70;73.28;100529.56;4999912;28;20054;-47
2023/09/02 06:13:57;;;;;;;19.38;8.85;;;;;;;17.71;73.17;100533.91;4998141;28;20053;-49
2023/09/02 06:16:24;;;;;;;19.05;9.65;;;;;;;17.72;73.12;100536.47;4999001;28;20054;-49
2023/09/02 06:18:51;;;;;;;25.80;9.10;;;;;;;17.72;73.49;100536.47;4994710;28;20563;-48
2023/09/02 06:21:18;;;;;;;21.13;9.63;;;;;;;17.75;72.69;100546.03;5003517;28;20042;-51
2023/09/02 06:23:45;;;;;;;17.95;9.13;;;;;;;17.77;73.35;100549.47;5000322;28;20042;-48
2023/09/02 06:26:12;;;;;;;22.63;10.05;;;;;;;17.81;73.46;100552.88;4996497;28;20050;-49
2023/09/02 06:28:40;;;;;;;23.50;9.10;;;;;;;17.86;72.89;100558.84;4993441;28;20398;-49
2023/09/02 06:31:08;;;;;;;18.17;9.38;;;;;;;17.91;73.02;100561.34;4999237;28;20052;-49
2023/09/02 06:33:35;;;;;;;22.45;10.05;;;;;;;17.93;72.87;100570.91;5001217;28;20056;-47
2023/09/02 06:36:12;;;;;;;21.40;9.73;;;;;;;17.96;72.85;100576.06;4985731;28;20061;-48
2023/09/02 06:38:39;;;;;;;19.50;9.55;;;;;;;18.03;73.23;100573.31;4982693;28;20050;-48
2023/09/02 06:41:11;;;;;;;19.35;9.25;;;;;;;18.06;72.95;100581.06;4994948;28;20115;-48
2023/09/02 06:43:39;;;;;;;19.55;9.98;;;;;;;18.08;72.69;100582.78;4999122;28;20050;-49
2023/09/02 06:46:08;;;;;;;22.48;8.77;;;;;;;18.09;73.16;100589.75;5001891;28;20061;-48
2023/09/02 06:48:35;;;;;;;23.73;10.20;;;;;;;18.08;72.42;100595.88;5003328;28;20050;-51
2023/09/02 06:51:02;;;;;;;22.00;10.05;;;;;;;18.09;72.95;100602.00;4997824;28;20054;-47
2023/09/02 06:53:28;;;;;;;19.40;10.30;;;;;;;18.12;73.11;100609.78;4994036;28;20046;-47
2023/09/02 06:55:55;;;;;;;22.48;10.27;;;;;;;18.12;72.87;100609.78;5001774;28;20082;-49
2023/09/02 06:58:22;;;;;;;17.52;9.40;;;;;;;18.14;72.78;100621.09;5005843;28;20049;-47
2023/09/02 07:00:48;;;;;;;15.65;7.95;;;;;;;18.14;72.87;100621.09;5002578;28;20573;-49
2023/09/02 07:03:15;;;;;;;15.23;8.25;;;;;;;18.18;72.69;100617.50;5003821;28;20064;-47
2023/09/02 07:05:43;;;;;;;14.60;7.78;;;;;;;18.20;72.38;100623.56;5002037;28;20049;-46
2023/09/02 07:08:09;;;;;;;16.90;7.88;;;;;;;18.23;72.10;100620.84;5005780;28;20053;-49
2023/09/02 07:10:36;;;;;;;13.80;6.93;;;;;;;18.23;72.52;100620.00;5000871;28;20431;-49
2023/09/02 07:13:03;;;;;;;17.05;7.22;;;;;;;18.22;72.76;100626.13;5004304;28;20060;-50
2023/09/02 07:15:30;;;;;;;17.77;7.43;;;;;;;18.25;72.78;100633.94;5003905;28;20057;-47
2023/09/02 07:17:56;;;;;;;13.77;6.72;;;;;;;18.29;72.50;100634.69;5004605;28;20053;-50
2023/09/02 07:20:23;;;;;;;12.85;6.30;;;;;;;18.34;72.50;100644.16;5001180;28;20129;-47
2023/09/02 07:22:50;;;;;;;13.90;6.07;;;;;;;18.36;72.33;100642.38;5001720;28;20116;-50
2023/09/02 07:25:16;;;;;;;12.02;5.82;;;;;;;18.40;72.37;100643.16;5005005;28;20050;-48
2023/09/02 07:27:43;;;;;;;11.75;5.07;;;;;;;18.41;72.68;100644.88;4996466;28;20116;-48
2023/09/02 07:30:10;;;;;;;10.52;5.45;;;;;;;18.42;72.31;100646.63;4993519;28;20072;-49
2023/09/02 07:32:37;;;;;;;10.18;5.22;;;;;;;18.43;72.76;100658.81;5005301;28;20046;-50
2023/09/02 07:35:04;;;;;;;12.23;5.63;;;;;;;18.43;71.97;100661.44;4999612;28;20053;-48
2023/09/02 07:37:31;;;;;;;13.32;6.18;;;;;;;18.44;71.94;100663.16;5000136;28;20060;-50
2023/09/02 07:39:58;;;;;;;12.02;4.50;;;;;;;18.45;72.51;100662.28;4994811;28;20565;-50
2023/09/02 07:42:24;;;;;;;15.00;6.00;;;;;;;18.48;72.20;100662.16;4997720;28;20043;-50
2023/09/02 07:44:52;;;;;;;12.93;5.32;;;;;;;18.56;72.40;100668.97;4991218;28;20058;-50
2023/09/02 07:47:18;;;;;;;14.43;5.95;;;;;;;18.64;72.34;100677.50;4994871;28;20045;-49
2023/09/02 07:49:46;;;;;;;11.30;6.47;;;;;;;18.71;72.20;100684.31;4987555;28;20427;-51
2023/09/02 07:52:13;;;;;;;12.00;5.82;;;;;;;18.75;71.64;100683.31;4999320;28;20046;-50
2023/09/02 07:54:39;;;;;;;9.15;6.15;;;;;;;18.77;71.75;100691.16;4997083;28;20050;-51
2023/09/02 07:57:06;;;;;;;11.93;6.20;;;;;;;18.78;71.57;100690.25;4993031;28;20057;-50
2023/09/02 07:59:33;;;;;;;15.18;6.63;;;;;;;18.81;71.32;100687.56;5000694;28;20050;-51
2023/09/02 08:02:00;;;;;;;14.70;7.03;;;;;;;18.84;71.63;100691.84;5003860;28;20042;-51
2023/09/02 08:04:26;;;;;;;12.63;6.38;;;;;;;18.87;71.61;100690.03;4998993;28;20054;-56
2023/09/02 08:06:53;;;;;;;15.38;7.28;;;;;;;18.89;71.65;100697.84;5002737;28;20045;-47
2023/09/02 08:09:19;;;;;;;15.20;6.45;;;;;;;18.90;71.21;100704.81;5001814;28;20046;-50
2023/09/02 08:11:46;;;;;;;13.75;7.13;;;;;;;18.91;71.19;100710.94;5002853;28;20046;-49
2023/09/02 08:14:13;;;;;;;16.40;7.35;;;;;;;18.92;71.36;100713.53;4999223;28;20119;-52
2023/09/02 08:16:39;;;;;;;11.73;5.28;;;;;;;18.95;70.74;100707.31;5003655;28;20618;-49
2023/09/02 08:19:06;;;;;;;10.32;7.63;;;;;;;18.99;71.29;100707.19;5002457;28;20169;-51
2023/09/02 08:21:33;;;;;;;13.75;7.20;;;;;;;19.09;71.17;100707.84;4996523;28;20057;-51
2023/09/02 08:24:00;;;;;;;15.32;6.70;;;;;;;19.18;70.71;100711.97;5002071;28;20108;-52
2023/09/02 08:26:26;;;;;;;12.07;6.72;;;;;;;19.27;70.98;100718.72;4997675;28;20061;-49
2023/09/02 08:28:53;;;;;;;10.45;6.85;;;;;;;19.34;70.41;100725.53;4996819;28;20042;-51
2023/09/02 08:31:20;;;;;;;12.02;6.80;;;;;;;19.44;70.48;100731.38;4996150;28;20060;-48
2023/09/02 08:33:47;;;;;;;8.63;5.72;;;;;;;19.46;69.81;100734.81;4998554;28;20065;-47
2023/09/02 08:36:15;;;;;;;11.80;6.38;;;;;;;19.47;70.06;100736.53;5000475;28;20041;-49
2023/09/02 08:38:43;;;;;;;9.50;6.30;;;;;;;19.45;69.69;100737.50;4996947;28;20062;-49
2023/09/02 08:41:24;;;;;;;10.65;6.63;;;;;;;19.45;69.80;100733.09;5002639;28;20045;-48
2023/09/02 08:43:53;;;;;;;8.20;5.18;;;;;;;19.49;69.73;100739.97;4996992;28;20042;-48
2023/09/02 08:46:24;;;;;;;10.10;6.15;;;;;;;19.55;69.51;100738.09;5005587;28;20486;-46
2023/09/02 08:48:52;;;;;;;11.65;6.10;;;;;;;19.62;69.03;100737.00;4999302;28;20160;-48
2023/09/02 08:51:21;;;;;;;10.20;5.55;;;;;;;19.72;68.79;100735.81;5000517;28;20049;-48
2023/09/02 08:53:48;;;;;;;15.52;6.28;;;;;;;19.83;68.76;100748.63;4998705;28;20058;-49
2023/09/02 08:56:15;;;;;;;10.85;5.68;;;;;;;19.88;68.76;100751.09;4996326;28;20878;-48
2023/09/02 08:58:43;;;;;;;11.82;5.65;;;;;;;19.98;68.97;100760.44;5002801;28;20068;-50
2023/09/02 09:01:13;;;;;;;8.52;4.88;;;;;;;20.07;68.52;100771.59;5002353;28;20049;-48
2023/09/02 09:03:44;;;;;;;7.90;4.10;;;;;;;20.08;68.57;100768.94;5001614;28;20062;-48
2023/09/02 09:06:12;;;;;;;8.52;3.78;;;;;;;20.04;67.82;100768.16;5002559;28;20329;-54
2023/09/02 09:08:41;;;;;;;7.78;4.15;;;;;;;20.02;68.00;100769.97;5004156;28;20064;-51
2023/09/02 09:11:10;;;;;;;7.45;3.63;;;;;;;20.08;68.17;100770.69;5000013;28;20062;-52
2023/09/02 09:13:44;;;;;;;8.63;4.20;;;;;;;20.18;67.89;100774.75;5007613;28;20053;-51
2023/09/02 09:16:15;;;;;;;6.10;3.35;;;;;;;20.21;67.48;100781.69;5008590;28;20038;-46
2023/09/02 09:18:42;;;;;;;9.07;3.50;;;;;;;20.21;67.53;100779.94;4997738;28;20077;-49
2023/09/02 09:21:09;;;;;;;7.40;3.88;;;;;;;20.19;67.17;100779.09;5000881;28;20123;-51
2023/09/02 09:23:36;;;;;;;9.35;4.05;;;;;;;20.24;67.51;100793.00;5004340;28;20053;-47
2023/09/02 09:26:04;;;;;;;6.80;4.25;;;;;;;20.40;67.12;100784.63;5007265;28;20128;-52
2023/09/02 09:28:53;;;;;;;6.35;3.42;;;;;;;20.40;66.62;100787.25;5000948;28;20054;-51
2023/09/02 09:31:20;;;;;;;;;;;;;;;20.40;66.53;100785.47;4993314;28;20089;-48
2023/09/02 09:33:58;;;;;;;8.60;3.95;;;;;;;20.53;66.34;100779.78;5042248;28;19975;-52
2023/09/02 09:36:27;;;;;;;9.20;2.90;;;;;;;20.64;66.71;100784.72;5033332;28;20439;-48
2023/09/02 09:38:56;;;;;;;7.82;3.05;;;;;;;20.72;66.18;100780.06;5040399;28;20049;-49
2023/09/02 09:41:24;;;;;;;;;;;;;;;20.71;66.14;100794.13;5036789;28;20049;-50
2023/09/02 09:44:15;;;;;;;5.68;3.28;;;;;;;20.89;65.86;100797.06;5040516;28;19990;-54
2023/09/02 09:57:34;;;;;;;7.63;2.20;;;;;;;21.09;65.18;100808.69;5015125;28;20406;-53
2023/09/02 10:00:01;;;;;;;6.15;1.95;;;;;;;21.14;64.50;100812.03;4991201;28;20049;-51
2023/09/02 10:02:28;;;;;;;7.30;2.42;;;;;;;21.22;64.71;100820.53;5001326;28;20088;-50
2023/09/02 10:04:58;;;;;;;5.82;2.50;;;;;;;21.31;64.77;100817.56;5001136;28;20057;-49
2023/09/02 10:07:30;;;;;;;6.85;2.45;;;;;;;21.41;64.24;100822.50;5000599;28;20045;-50
2023/09/02 10:10:05;;;;;;;8.88;2.70;;;;;;;21.42;64.27;100813.69;4992540;28;20058;-49
2023/09/02 10:12:33;;;;;;;5.93;2.42;;;;;;;21.47;64.03;100822.28;5008276;28;20061;-48
2023/09/02 10:15:06;;;;;;;7.15;2.72;;;;;;;21.57;63.71;100814.88;5000504;28;20054;-48
2023/09/02 10:17:34;;;;;;;4.85;2.40;;;;;;;21.85;65.04;100818.31;5000103;28;20046;-50
2023/09/02 10:20:02;;;;;;;4.72;2.63;;;;;;;22.32;64.59;100828.78;4998447;28;20046;-53
2023/09/02 10:22:31;;;;;;;5.78;2.47;;;;;;;22.85;64.21;100816.13;4999364;28;20046;-50
2023/09/02 10:27:40;;;;;;;4.45;2.35;;;;;;;23.80;61.45;100821.72;5003431;28;20574;-50
2023/09/02 10:30:17;;;;;;;4.88;2.58;;;;;;;24.11;60.21;100825.63;4994265;28;20053;-52
2023/09/02 10:32:52;;;;;;;5.03;2.33;;;;;;;24.50;59.83;100822.91;4998501;28;20053;-47
2023/09/02 10:35:22;;;;;;;7.88;2.78;;;;;;;24.88;58.66;100820.16;4986520;28;20065;-51
2023/09/02 10:37:54;;;;;;;4.00;2.83;;;;;;;25.08;57.16;100818.28;4991504;28;20448;-50
2023/09/02 10:40:24;;;;;;;3.88;1.95;;;;;;;25.27;56.61;100817.31;5000921;28;20050;-52
2023/09/02 10:42:53;;;;;;;4.03;2.05;;;;;;;25.40;56.44;100813.06;4996978;28;20054;-52
2023/09/02 10:45:20;;;;;;;3.63;1.90;;;;;;;25.55;55.44;100826.44;5003348;28;20085;-51
2023/09/02 10:47:48;;;;;;;5.45;2.65;;;;;;;25.66;55.75;100825.88;5002696;28;20053;-51
2023/09/02 10:50:18;;;;;;;3.88;2.00;;;;;;;25.64;53.46;100810.06;5000568;28;20096;-50
2023/09/02 10:52:44;;;;;;;;;;;;;;;25.65;52.90;100816.22;4995820;28;20053;-47
2023/09/02 10:55:22;;;;;;;5.25;2.13;;;;;;;25.79;53.79;100812.81;4995961;28;19930;-47
2023/09/02 10:57:51;;;;;;;5.93;2.05;;;;;;;25.99;53.14;100816.16;4999876;28;20484;-49
2023/09/02 11:00:24;;;;;;;4.10;2.25;;;;;;;26.03;52.92;100815.91;4999327;28;20065;-48
2023/09/02 11:02:52;;;;;;;5.35;2.63;;;;;;;25.96;52.25;100814.53;4997803;28;20053;-47
2023/09/02 11:05:21;;;;;;;5.40;2.17;;;;;;;25.90;52.57;100815.72;4993278;28;20546;-53
2023/09/02 11:07:49;;;;;;;3.53;1.77;;;;;;;25.91;52.53;100812.13;5001009;28;20052;-50
2023/09/02 11:10:17;;;;;;;6.43;2.42;;;;;;;26.03;52.19;100815.03;4994045;28;20054;-51
2023/09/02 11:15:36;;;;;;;2.67;1.52;;;;;;;26.03;51.33;100826.53;5043429;27;20410;-53
2023/09/02 11:18:28;;;;;;;4.43;2.22;;;;;;;26.28;52.05;100816.38;5034598;28;20116;-51
2023/09/02 11:20:56;;;;;;;3.05;1.80;;;;;;;26.54;51.76;100816.63;5019175;28;20048;-49
2023/09/02 11:23:23;;;;;;;4.22;2.28;;;;;;;26.72;51.56;100813.84;5031190;28;20055;-47
2023/09/02 11:26:13;;;;;;;2.78;1.63;;;;;;;26.78;50.40;100821.47;5033491;28;20049;-48
2023/09/02 11:28:40;;;;;;;2.75;1.75;;;;;;;26.74;49.53;100819.94;5035274;28;20045;-51
2023/09/02 11:31:12;;;;;;;2.13;1.38;;;;;;;26.56;50.01;100820.06;5038627;28;20418;-48
2023/09/02 11:33:40;;;;;;;2.85;1.45;;;;;;;26.47;49.54;100820.63;5046650;28;20131;-49
2023/09/02 11:36:10;;;;;;;2.03;1.35;;;;;;;26.37;49.44;100822.94;5037029;28;20417;-48
2023/09/02 11:38:37;;;;;;;4.07;1.60;;;;;;;26.24;49.84;100817.44;5038819;28;20137;-48
2023/09/02 11:41:04;;;;;;;4.57;1.80;;;;;;;26.23;50.26;100821.03;5037808;28;20060;-47